Forks, Washington
Current Conditions -  °F | °C
As of 6:09 PM on Sunday 21 Dec 2014 (Local Time) from KUIL Reporting Station
Haze Haze  
Wind Chill: 51°   Ceiling: 2500
Heat Index: 51°   Visibility: 5mi
Dew Point: 50°   Wind: 8mph
Humidity: 96%   Direction: 240°WSW
Pressure: 30.07"   Gusts: NA
Location:  47.95°N, 124.39°W
Report Text: KUIL 220209Z AUTO 24007KT 5SM BR SCT014 BKN025 BKN048 11/10 A3007 RMK AO2 T01060100 $
Loading
Personal Weather Stations






























Interactive Weather Map New forecast layout! Learn more

10-Day Weather Forecast

Advertisements
Track Severe Weather on mobile